createdAt,value
2019-05-09T00:00:46.025Z,98.30
2019-05-09T00:05:47.878Z,98.50
2019-05-09T00:10:53.484Z,98.50
2019-05-09T00:15:59.799Z,98.60
2019-05-09T00:21:04.390Z,98.70
2019-05-09T00:26:10.271Z,98.70
2019-05-09T00:31:13.736Z,98.70
2019-05-09T00:36:15.928Z,98.90
2019-05-09T00:41:17.295Z,99.00
2019-05-09T00:46:25.416Z,99.10
2019-05-09T00:51:29.227Z,99.20
2019-05-09T00:56:33.937Z,99.30
2019-05-09T01:01:38.572Z,99.30
2019-05-09T01:06:40.000Z,99.20
2019-05-09T01:11:41.295Z,99.20
2019-05-09T01:16:46.731Z,99.30
2019-05-09T01:21:49.767Z,99.30
2019-05-09T01:26:54.206Z,99.30
2019-05-09T01:31:57.483Z,99.30
2019-05-09T01:37:06.760Z,99.30
2019-05-09T01:42:08.663Z,99.40
2019-05-09T01:47:09.965Z,99.40
2019-05-09T01:52:13.737Z,99.40
2019-05-09T01:57:15.555Z,99.50
2019-05-09T02:02:18.345Z,99.50
2019-05-09T02:07:23.757Z,99.60
2019-05-09T02:12:25.713Z,99.60
2019-05-09T02:17:57.853Z,99.70
2019-05-09T02:22:54.379Z,99.70
2019-05-09T02:27:57.895Z,99.80
2019-05-09T02:33:01.032Z,99.80
2019-05-09T02:38:02.531Z,99.90
2019-05-09T02:43:05.834Z,99.90
2019-05-09T02:48:09.453Z,99.90
2019-05-09T02:53:12.555Z,99.90
2019-05-09T02:58:20.433Z,99.90
2019-05-09T03:03:31.606Z,99.70
2019-05-09T03:08:34.662Z,99.80
2019-05-09T03:13:39.333Z,99.70
2019-05-09T03:18:39.738Z,99.60
2019-05-09T03:23:41.191Z,99.70
2019-05-09T03:29:08.585Z,99.60
2019-05-09T03:34:11.865Z,99.90
2019-05-09T03:39:18.614Z,99.60
2019-05-09T03:44:20.712Z,99.70
2019-05-09T03:49:24.305Z,99.80
2019-05-09T03:54:28.140Z,99.90
2019-05-09T03:59:31.448Z,99.90
2019-05-09T04:04:34.612Z,99.90
2019-05-09T04:09:37.505Z,99.90
2019-05-09T04:14:40.897Z,99.90
2019-05-09T04:19:44.360Z,99.90
2019-05-09T04:24:47.421Z,99.90
2019-05-09T04:29:50.899Z,99.90
2019-05-09T04:34:52.943Z,99.90
2019-05-09T04:40:01.584Z,99.90
2019-05-09T04:45:03.593Z,99.90
2019-05-09T04:50:07.614Z,99.90
2019-05-09T04:55:12.093Z,99.90
2019-05-09T05:00:18.309Z,99.90
2019-05-09T05:05:21.330Z,99.90
2019-05-09T05:10:22.588Z,99.90
2019-05-09T05:15:24.187Z,99.90
2019-05-09T05:20:30.654Z,99.90
2019-05-09T05:25:31.976Z,99.90
2019-05-09T05:30:33.308Z,99.90
2019-05-09T05:35:44.909Z,99.90
2019-05-09T05:40:47.664Z,99.90
2019-05-09T05:46:01.897Z,99.90
2019-05-09T05:51:05.303Z,99.90
2019-05-09T05:56:09.513Z,99.90
2019-05-09T06:01:12.449Z,99.90
2019-05-09T06:06:13.835Z,99.70
2019-05-09T06:11:17.559Z,99.60
2019-05-09T06:16:22.160Z,99.30
2019-05-09T06:21:22.489Z,99.00
2019-05-09T06:26:24.165Z,98.80
2019-05-09T06:31:28.299Z,98.60
2019-05-09T06:36:29.017Z,98.40
2019-05-09T06:41:30.297Z,97.80
2019-05-09T06:46:34.558Z,97.30
2019-05-09T06:51:38.781Z,96.80
2019-05-09T06:56:40.643Z,96.50
2019-05-09T07:01:48.195Z,95.90
2019-05-09T07:07:07.790Z,95.40
2019-05-09T07:12:14.863Z,95.10
2019-05-09T07:17:19.889Z,94.10
2019-05-09T07:22:24.554Z,94.00
2019-05-09T07:27:28.523Z,93.20
2019-05-09T07:32:48.834Z,93.00
2019-05-09T07:37:50.259Z,92.60
2019-05-09T07:42:53.408Z,92.20
2019-05-09T07:47:58.600Z,91.80
2019-05-09T07:53:00.323Z,91.40
2019-05-09T07:58:02.765Z,90.80
2019-05-09T08:03:22.768Z,90.60
2019-05-09T08:08:24.335Z,90.10
2019-05-09T08:13:29.017Z,90.00
2019-05-09T08:18:30.146Z,89.90
2019-05-09T08:23:32.897Z,89.80
2019-05-09T08:28:39.006Z,88.60
2019-05-09T08:33:40.414Z,88.50
2019-05-09T08:38:42.561Z,87.80
2019-05-09T08:43:44.020Z,87.30
2019-05-09T08:48:48.290Z,86.90
2019-05-09T08:53:49.139Z,87.30
2019-05-09T08:58:53.767Z,85.80
2019-05-09T09:03:57.452Z,85.20
2019-05-09T09:08:58.437Z,84.70
2019-05-09T09:14:03.624Z,83.60
2019-05-09T09:19:05.090Z,82.70
2019-05-09T09:24:09.737Z,83.00
2019-05-09T09:29:12.932Z,83.10
2019-05-09T09:34:18.142Z,82.50
2019-05-09T09:39:20.132Z,82.70
2019-05-09T09:44:22.495Z,82.50
2019-05-09T09:49:25.445Z,81.90
2019-05-09T09:54:28.145Z,81.50
2019-05-09T09:59:40.846Z,81.50
2019-05-09T10:04:43.041Z,81.40
2019-05-09T10:09:48.090Z,81.30
2019-05-09T10:15:03.901Z,81.10
2019-05-09T10:20:20.417Z,81.60
2019-05-09T10:25:21.856Z,80.00
2019-05-09T10:30:33.377Z,79.80
2019-05-09T10:35:34.602Z,79.60
2019-05-09T10:40:39.432Z,78.40
2019-05-09T10:45:59.777Z,76.80
2019-05-09T10:51:04.188Z,76.30
2019-05-09T10:56:07.863Z,75.90
2019-05-09T11:01:12.580Z,76.00
2019-05-09T11:06:14.099Z,76.10
2019-05-09T11:11:20.897Z,76.40
2019-05-09T11:16:38.049Z,76.10
2019-05-09T11:21:28.614Z,75.50
2019-05-09T11:26:32.428Z,75.10
2019-05-09T11:31:33.927Z,74.70
2019-05-09T11:36:37.676Z,74.80
2019-05-09T11:41:40.338Z,74.50
2019-05-09T11:46:41.589Z,73.60
2019-05-09T11:51:42.912Z,73.20
2019-05-09T11:56:44.218Z,71.20
2019-05-09T12:01:48.039Z,69.90
2019-05-09T12:06:49.482Z,69.60
2019-05-09T12:11:51.203Z,69.10
2019-05-09T12:16:52.496Z,69.60
2019-05-09T12:21:58.187Z,68.20
2019-05-09T12:27:01.459Z,67.80
2019-05-09T12:32:02.342Z,68.00
2019-05-09T12:37:03.674Z,68.60
2019-05-09T12:42:08.656Z,69.10
2019-05-09T12:47:13.388Z,68.80
2019-05-09T12:52:14.818Z,69.10
2019-05-09T12:57:18.935Z,69.30
2019-05-09T13:02:19.664Z,70.00
2019-05-09T13:07:23.045Z,69.60
2019-05-09T13:12:29.133Z,69.40
2019-05-09T13:17:33.495Z,68.60
2019-05-09T13:22:35.168Z,68.40
2019-05-09T13:27:38.773Z,67.80
2019-05-09T13:32:40.290Z,67.60
2019-05-09T13:37:42.944Z,67.00
2019-05-09T13:42:44.232Z,67.30
2019-05-09T13:47:48.450Z,67.70
2019-05-09T13:52:53.232Z,68.50
2019-05-09T13:57:59.453Z,69.10
2019-05-09T14:03:01.057Z,69.10
2019-05-09T14:08:11.005Z,68.60
2019-05-09T14:13:18.990Z,69.10
2019-05-09T14:18:22.386Z,69.30
2019-05-09T14:23:34.929Z,72.70
2019-05-09T14:28:30.026Z,75.60
2019-05-09T14:33:31.903Z,77.20
2019-05-09T14:38:34.914Z,79.70
2019-05-09T14:43:39.664Z,79.60
2019-05-09T14:48:41.142Z,78.60
2019-05-09T14:53:45.456Z,79.50
2019-05-09T14:58:53.495Z,80.30
2019-05-09T15:04:00.967Z,79.80
2019-05-09T15:09:08.054Z,79.30
2019-05-09T15:14:10.745Z,79.30
2019-05-09T15:19:13.023Z,79.60
2019-05-09T15:24:14.433Z,78.00
2019-05-09T15:29:15.686Z,78.10
2019-05-09T15:34:18.674Z,78.00
2019-05-09T15:39:20.465Z,76.90
2019-05-09T15:44:21.764Z,75.70
2019-05-09T15:49:23.354Z,74.60
2019-05-09T15:54:24.826Z,73.50
2019-05-09T15:59:28.183Z,72.80
2019-05-09T16:04:29.671Z,73.90
2019-05-09T16:09:32.938Z,75.20
2019-05-09T16:14:34.269Z,76.30
2019-05-09T16:19:37.767Z,81.40
2019-05-09T16:24:39.104Z,86.90
2019-05-09T16:29:42.300Z,90.70
2019-05-09T16:34:43.608Z,91.90
2019-05-09T16:39:47.629Z,93.10
2019-05-09T16:44:50.221Z,94.00
2019-05-09T16:49:52.294Z,94.20
2019-05-09T16:54:55.548Z,94.60
2019-05-09T16:59:57.016Z,94.50
2019-05-09T17:05:01.026Z,94.50
2019-05-09T17:10:08.346Z,94.30
2019-05-09T17:15:17.536Z,94.70
2019-05-09T17:20:27.798Z,94.70
2019-05-09T17:25:33.597Z,95.00
2019-05-09T17:30:38.381Z,95.70
2019-05-09T17:35:40.161Z,95.50
2019-05-09T17:40:41.432Z,95.70
2019-05-09T17:45:44.162Z,95.90
2019-05-09T17:50:45.825Z,96.00
2019-05-09T17:55:47.776Z,96.30
2019-05-09T18:00:51.592Z,96.10
2019-05-09T18:05:52.919Z,96.10
2019-05-09T18:10:54.306Z,96.30
2019-05-09T18:15:57.602Z,96.30
2019-05-09T18:20:59.223Z,96.50
2019-05-09T18:26:01.644Z,96.80
2019-05-09T18:31:02.965Z,96.90
2019-05-09T18:36:04.921Z,97.00
2019-05-09T18:41:10.040Z,97.00
2019-05-09T18:46:13.815Z,97.00
2019-05-09T18:51:15.590Z,97.00
2019-05-09T18:56:16.934Z,97.10
2019-05-09T19:01:20.186Z,97.10
2019-05-09T19:06:21.518Z,97.20
2019-05-09T19:11:22.754Z,97.30
2019-05-09T19:16:34.809Z,97.50
2019-05-09T19:21:38.188Z,97.50
2019-05-09T19:26:41.695Z,97.90
2019-05-09T19:31:44.595Z,97.60
2019-05-09T19:36:46.361Z,97.70
2019-05-09T19:41:47.626Z,97.70
2019-05-09T19:46:49.130Z,97.80
2019-05-09T19:51:50.425Z,97.90
2019-05-09T19:56:55.497Z,98.00
2019-05-09T20:01:57.155Z,98.20
2019-05-09T20:07:02.696Z,98.20
2019-05-09T20:12:21.578Z,98.30
2019-05-09T20:17:23.197Z,98.30
2019-05-09T20:22:24.575Z,98.30
2019-05-09T20:27:26.100Z,98.50
2019-05-09T20:32:27.448Z,98.60
2019-05-09T20:37:28.724Z,98.80
2019-05-09T20:42:31.163Z,98.80
2019-05-09T20:47:32.688Z,98.80
2019-05-09T20:52:34.091Z,98.90
2019-05-09T20:57:35.397Z,98.90
2019-05-09T21:02:38.720Z,98.80
2019-05-09T21:07:40.111Z,98.80
2019-05-09T21:12:41.467Z,98.70
2019-05-09T21:17:43.839Z,98.50
2019-05-09T21:22:45.199Z,98.60
2019-05-09T21:27:46.682Z,98.70
2019-05-09T21:32:48.050Z,98.70
2019-05-09T21:37:49.404Z,98.70
2019-05-09T21:42:50.768Z,99.10
2019-05-09T21:47:57.094Z,98.80
2019-05-09T21:52:58.397Z,98.80
2019-05-09T21:57:59.764Z,98.70
2019-05-09T22:03:01.401Z,98.70
2019-05-09T22:08:06.248Z,98.50
2019-05-09T22:13:10.579Z,98.50
2019-05-09T22:18:13.112Z,98.60
2019-05-09T22:23:14.574Z,98.70
2019-05-09T22:28:19.334Z,98.90
2019-05-09T22:33:22.162Z,98.90
2019-05-09T22:38:29.827Z,99.00
2019-05-09T22:43:31.111Z,99.00
2019-05-09T22:48:32.895Z,99.00
2019-05-09T22:53:34.427Z,99.00
2019-05-09T22:58:37.694Z,99.00
2019-05-09T23:03:38.998Z,99.00
2019-05-09T23:08:41.923Z,99.00
2019-05-09T23:13:52.202Z,99.10
2019-05-09T23:18:56.802Z,99.10
2019-05-09T23:24:01.073Z,99.10
2019-05-09T23:29:21.048Z,99.20
2019-05-09T23:34:24.299Z,99.30
2019-05-09T23:39:36.645Z,99.40
2019-05-09T23:44:38.305Z,99.50
2019-05-09T23:49:41.194Z,99.60
2019-05-09T23:55:01.034Z,99.70
